Time;durP1;ratioP1;P1;durP2;ratioP2;P2;SDS_P1;SDS_P2;PMS_P1;PMS_P2;Temp;Humidity;BMP_temperature;BMP_pressure;BME280_temperature;BME280_humidity;BME280_pressure;Samples;Min_cycle;Max_cycle;Signal;HPM_P1;HPM_P2
2023/08/28 00:04:00;;;;;;;3.53;1.67;;;;;;;14.44;93.94;101012.94;20537610;28;20478;-62
2023/08/28 00:14:23;;;;;;;1.98;1.70;;;;;;;14.50;93.82;101017.91;20528160;28;20051;-62
2023/08/28 00:24:45;;;;;;;5.38;1.70;;;;;;;14.51;95.17;101022.19;20532766;28;20049;-62
2023/08/28 00:35:07;;;;;;;;;;;;;;;14.53;95.75;101013.41;20520210;28;20045;-62
2023/08/28 00:45:28;;;;;;;4.45;2.00;;;;;;;14.51;95.32;101014.38;20521705;28;19930;-62
2023/08/28 00:55:50;;;;;;;6.32;2.00;;;;;;;14.58;93.92;101021.00;20524311;28;20046;-62
2023/08/28 01:06:30;;;;;;;4.72;1.85;;;;;;;14.64;94.93;101021.59;20525265;28;20054;-62
2023/08/28 01:17:01;;;;;;;4.93;2.10;;;;;;;14.65;95.07;101006.81;20527578;28;20043;-62
2023/08/28 01:27:22;;;;;;;7.10;2.00;;;;;;;14.60;94.53;100994.00;20540180;28;20035;-62
2023/08/28 01:37:49;;;;;;;4.10;2.00;;;;;;;14.61;95.82;100995.69;20537654;28;20049;-62
2023/08/28 01:48:11;;;;;;;3.97;2.20;;;;;;;14.56;96.42;101017.66;20535293;28;20511;-62
2023/08/28 01:58:38;;;;;;;7.07;2.20;;;;;;;14.51;96.12;101025.63;20560351;28;20047;-62
2023/08/28 02:08:59;;;;;;;5.00;2.40;;;;;;;14.38;96.73;101027.06;20536330;28;20057;-62
2023/08/28 02:19:21;;;;;;;;;;;;;;;14.30;97.39;101036.97;20541560;28;20046;-62
2023/08/28 02:29:43;;;;;;;3.65;2.42;;;;;;;14.32;97.34;101039.50;20552053;28;19926;-62
2023/08/28 02:40:05;;;;;;;;;;;;;;;14.13;97.58;101049.81;20538137;28;20523;-61
2023/08/28 02:50:27;;;;;;;5.90;3.33;;;;;;;14.03;97.90;101054.53;20532655;28;19930;-62
2023/08/28 03:00:50;;;;;;;;;;;;;;;13.98;98.25;101066.03;20541396;28;20053;-62
2023/08/28 03:11:11;;;;;;;8.15;3.67;;;;;;;13.87;98.21;101060.41;20526568;28;20264;-62
2023/08/28 03:21:34;;;;;;;7.35;3.40;;;;;;;13.88;97.48;101064.72;20537762;28;20499;-62
2023/08/28 03:31:56;;;;;;;5.88;3.58;;;;;;;13.88;97.65;101083.75;20533786;28;20062;-62
2023/08/28 03:42:18;;;;;;;6.55;3.97;;;;;;;13.87;98.25;101094.22;20540425;28;20069;-61
2023/08/28 03:52:39;;;;;;;;;;;;;;;13.85;99.60;101111.66;20525342;28;20039;-62
2023/08/28 04:03:01;;;;;;;5.50;4.40;;;;;;;13.85;98.86;101111.66;20527010;28;19930;-62
2023/08/28 04:13:23;;;;;;;5.60;4.20;;;;;;;13.78;99.17;101108.44;20531404;28;20050;-62
2023/08/28 04:23:45;;;;;;;11.75;4.10;;;;;;;13.78;98.84;101121.47;20534093;28;20042;-62
2023/08/28 04:34:06;;;;;;;;;;;;;;;13.79;99.93;101133.53;20529497;28;20714;-62
2023/08/28 04:44:28;;;;;;;7.33;4.73;;;;;;;13.71;99.29;101111.34;20541296;28;19937;-62
2023/08/28 04:54:50;;;;;;;8.10;5.40;;;;;;;13.69;98.69;101100.16;20518904;28;20047;-61
2023/08/28 05:05:11;;;;;;;;;;;;;;;13.73;99.78;101101.72;20511129;28;20058;-62
2023/08/28 05:15:33;;;;;;;8.87;5.23;;;;;;;13.71;99.30;101099.19;20515620;28;19922;-62
2023/08/28 05:25:55;;;;;;;7.00;5.07;;;;;;;13.79;99.38;101078.09;20494975;28;21408;-63
2023/08/28 05:36:17;;;;;;;10.60;6.25;;;;;;;13.85;99.60;101068.28;20508937;28;20048;-62
2023/08/28 05:46:38;;;;;;;;;;;;;;;14.00;100.00;101085.03;20520808;28;20584;-62
2023/08/28 05:57:00;;;;;;;11.60;5.63;;;;;;;14.06;98.64;101077.00;20533617;28;19930;-63
2023/08/28 06:07:22;;;;;;;;;;;;;;;14.15;99.60;101100.03;20513703;28;20187;-62
2023/08/28 06:17:44;;;;;;;7.07;4.90;;;;;;;14.31;98.74;101105.50;20532891;28;19922;-62
2023/08/28 06:28:06;;;;;;;7.93;5.55;;;;;;;14.49;98.57;101125.56;20557846;28;21322;-62
2023/08/28 06:38:27;;;;;;;;;;;;;;;14.65;98.25;101137.06;20561951;28;20073;-62
2023/08/28 06:48:52;;;;;;;7.28;5.28;;;;;;;14.91;96.40;101135.03;20553260;28;19933;-62
2023/08/28 06:59:14;;;;;;;9.48;5.50;;;;;;;15.17;95.21;101156.50;20568518;28;20047;-62
2023/08/28 07:09:38;;;;;;;9.63;5.65;;;;;;;15.35;95.22;101160.91;20560203;28;20134;-62
2023/08/28 07:20:00;;;;;;;6.50;5.03;;;;;;;15.53;93.16;101170.59;20545666;28;20057;-62
2023/08/28 07:30:22;;;;;;;7.03;4.97;;;;;;;15.70;91.18;101173.25;20538253;28;20046;-62
2023/08/28 07:40:46;;;;;;;5.90;4.80;;;;;;;15.85;91.73;101177.78;20563431;28;20102;-63
2023/08/28 07:51:09;;;;;;;8.68;4.63;;;;;;;15.95;91.26;101189.50;20535749;28;20078;-62
2023/08/28 08:01:31;;;;;;;7.72;4.43;;;;;;;16.12;90.80;101186.94;20544566;28;20046;-63
2023/08/28 08:11:53;;;;;;;4.50;3.42;;;;;;;16.31;91.98;101197.38;20555328;28;20062;-63
2023/08/28 08:22:15;;;;;;;6.93;3.88;;;;;;;16.54;91.60;101197.97;20548073;28;20069;-63
2023/08/28 08:32:36;;;;;;;6.97;3.03;;;;;;;16.87;88.54;101198.94;20547126;28;20542;-63
2023/08/28 08:42:58;;;;;;;4.22;2.20;;;;;;;17.26;87.53;101192.59;20554597;28;20047;-63
2023/08/28 08:53:36;;;;;;;4.45;1.77;;;;;;;17.59;85.22;101198.72;20555192;28;20607;-63
2023/08/28 09:03:58;;;;;;;2.90;1.77;;;;;;;17.94;84.45;101200.31;20534390;28;20523;-63
2023/08/28 09:14:20;;;;;;;1.67;0.93;;;;;;;18.01;82.96;101197.28;20549744;28;20069;-63
2023/08/28 09:24:42;;;;;;;0.95;0.70;;;;;;;18.04;83.33;101206.72;20577891;28;20056;-63
2023/08/28 09:35:07;;;;;;;5.60;0.90;;;;;;;18.35;80.96;101214.56;20546086;28;20593;-62
2023/08/28 09:45:32;;;;;;;3.35;0.95;;;;;;;18.39;80.03;101221.34;20563577;28;20066;-63
2023/08/28 09:55:54;;;;;;;3.08;0.80;;;;;;;18.52;80.43;101214.50;20579816;28;20047;-63
2023/08/28 10:06:16;;;;;;;2.45;0.80;;;;;;;18.81;77.93;101211.06;20544538;28;20050;-63
2023/08/28 10:16:44;;;;;;;3.58;0.70;;;;;;;19.18;74.60;101198.41;20577993;28;20039;-62
2023/08/28 10:27:07;;;;;;;1.52;0.60;;;;;;;19.51;74.10;101185.91;20566580;28;20058;-62
2023/08/28 10:37:30;;;;;;;1.80;0.60;;;;;;;19.63;75.36;101196.50;20563122;28;20375;-63
2023/08/28 10:47:52;;;;;;;2.85;0.60;;;;;;;19.41;74.43;101195.31;20572582;28;20718;-63
2023/08/28 10:58:13;;;;;;;1.65;0.60;;;;;;;19.27;78.10;101217.09;20568666;28;20495;-62
2023/08/28 11:08:35;;;;;;;2.20;0.70;;;;;;;19.21;78.05;101208.75;20557323;28;20035;-62
2023/08/28 11:18:56;;;;;;;1.60;0.60;;;;;;;19.22;78.09;101206.03;20550088;28;20042;-62
2023/08/28 11:29:25;;;;;;;2.17;0.63;;;;;;;19.13;76.84;101205.72;20553739;28;20442;-62
2023/08/28 11:39:47;;;;;;;1.55;0.50;;;;;;;19.10;76.18;101219.03;20567871;28;20047;-62
2023/08/28 11:50:09;;;;;;;1.20;0.60;;;;;;;19.03;75.37;101206.25;20555204;28;20042;-62
2023/08/28 12:00:31;;;;;;;1.20;0.55;;;;;;;18.81;75.71;101211.06;20554337;28;20379;-62
2023/08/28 12:10:53;;;;;;;0.80;0.50;;;;;;;18.65;76.29;101226.00;20557398;28;20043;-62
2023/08/28 12:21:15;;;;;;;1.85;0.73;;;;;;;18.68;76.90;101219.75;20558340;28;20057;-62
2023/08/28 12:31:37;;;;;;;3.25;1.05;;;;;;;18.83;78.28;101200.47;20554629;28;20121;-62
2023/08/28 12:41:59;;;;;;;1.17;0.60;;;;;;;19.14;77.80;101187.25;20559802;28;20042;-62
2023/08/28 12:52:21;;;;;;;1.52;0.50;;;;;;;19.46;74.74;101198.47;20546705;28;20057;-62
2023/08/28 13:02:46;;;;;;;1.60;0.65;;;;;;;19.71;72.88;101188.16;20561419;28;20435;-62
2023/08/28 13:13:07;;;;;;;1.65;0.63;;;;;;;19.90;74.07;101200.06;20562449;28;20097;-63
2023/08/28 13:23:29;;;;;;;1.15;0.45;;;;;;;20.11;73.55;101197.84;20552608;28;20053;-63
2023/08/28 13:33:53;;;;;;;1.65;0.50;;;;;;;20.12;73.63;101173.28;20551224;28;20038;-63
2023/08/28 13:44:15;;;;;;;0.98;0.50;;;;;;;19.98;74.37;101160.16;20551603;28;20054;-63
2023/08/28 13:54:36;;;;;;;1.25;0.47;;;;;;;20.31;70.37;101167.72;20550918;28;20542;-63
2023/08/28 14:04:58;;;;;;;1.60;0.57;;;;;;;20.35;72.17;101180.53;20539907;28;20046;-63
2023/08/28 14:15:20;;;;;;;2.13;0.50;;;;;;;20.43;74.91;101182.69;20545149;28;20467;-62
2023/08/28 14:25:41;;;;;;;2.47;0.70;;;;;;;20.38;72.63;101185.59;20578846;28;20146;-63
2023/08/28 14:36:03;;;;;;;0.77;0.32;;;;;;;20.27;73.91;101198.63;20548178;28;20039;-63
2023/08/28 14:46:25;;;;;;;1.38;0.50;;;;;;;20.27;71.90;101203.88;20558601;28;20051;-63
2023/08/28 14:56:46;;;;;;;3.22;0.63;;;;;;;20.25;73.24;101212.78;20545996;28;20125;-63
2023/08/28 15:07:08;;;;;;;1.98;0.60;;;;;;;20.27;74.80;101230.16;20546715;28;20050;-63
2023/08/28 15:17:30;;;;;;;0.68;0.50;;;;;;;20.24;75.61;101238.22;20561234;28;20043;-63
2023/08/28 15:27:52;;;;;;;1.58;0.70;;;;;;;20.31;74.25;101247.41;20552510;28;20058;-63
2023/08/28 15:38:13;;;;;;;4.20;0.88;;;;;;;20.31;73.76;101236.06;20544156;28;20043;-63
2023/08/28 15:48:35;;;;;;;1.08;0.60;;;;;;;20.27;73.26;101235.41;20557247;28;20483;-63
2023/08/28 15:58:56;;;;;;;3.60;0.70;;;;;;;20.15;75.18;101246.66;20559459;28;20130;-62
2023/08/28 16:09:34;;;;;;;1.08;0.55;;;;;;;20.01;75.66;101249.31;20559622;28;20158;-62
2023/08/28 16:19:56;;;;;;;0.73;0.50;;;;;;;19.94;76.54;101238.31;20556609;28;20511;-62
2023/08/28 16:30:18;;;;;;;3.45;0.85;;;;;;;19.81;77.01;101231.31;20551827;28;20038;-62
2023/08/28 16:40:39;;;;;;;1.83;0.75;;;;;;;19.77;77.38;101229.81;20561986;28;20746;-62
2023/08/28 16:51:01;;;;;;;3.33;0.80;;;;;;;19.69;77.20;101239.94;20558827;28;20088;-62
2023/08/28 17:01:23;;;;;;;2.45;0.80;;;;;;;19.73;78.00;101255.41;20546922;28;20051;-62
2023/08/28 17:11:44;;;;;;;2.42;0.75;;;;;;;19.70;77.90;101255.63;20545851;28;20043;-62
2023/08/28 17:22:06;;;;;;;2.72;0.77;;;;;;;19.61;78.59;101274.53;20536103;28;20500;-62
2023/08/28 17:32:28;;;;;;;1.42;0.80;;;;;;;19.55;78.39;101282.78;20535064;28;20047;-62
2023/08/28 17:42:50;;;;;;;2.70;1.00;;;;;;;19.50;77.95;101300.56;20545684;28;20619;-62
2023/08/28 17:53:12;;;;;;;1.85;1.00;;;;;;;19.43;78.98;101319.44;20540177;28;20054;-62
2023/08/28 18:03:33;;;;;;;1.27;1.00;;;;;;;19.32;79.15;101333.16;20544525;28;20129;-62
2023/08/28 18:14:00;;;;;;;2.13;0.70;;;;;;;19.24;79.41;101318.78;20582478;28;20042;-62
2023/08/28 18:24:22;;;;;;;1.55;0.98;;;;;;;19.15;79.26;101309.66;20555850;28;20142;-63
2023/08/28 18:34:43;;;;;;;2.83;0.90;;;;;;;19.01;79.75;101305.19;20545473;28;20035;-62
2023/08/28 18:45:05;;;;;;;2.50;0.80;;;;;;;18.85;80.17;101293.91;20575955;28;20568;-62
2023/08/28 18:55:27;;;;;;;4.47;1.20;;;;;;;18.71;80.65;101303.47;20557942;28;20045;-62
2023/08/28 19:05:53;;;;;;;2.17;0.82;;;;;;;18.53;81.43;101305.31;20556521;28;20054;-62
2023/08/28 19:16:16;;;;;;;2.75;1.05;;;;;;;18.41;81.60;101321.72;20546964;28;20039;-63
2023/08/28 19:26:38;;;;;;;2.40;1.25;;;;;;;18.17;82.70;101320.41;20562445;28;20617;-63
2023/08/28 19:37:00;;;;;;;6.05;1.40;;;;;;;18.10;82.46;101316.41;20565198;28;20051;-62
2023/08/28 19:47:22;;;;;;;2.53;1.40;;;;;;;17.93;83.24;101313.81;20561093;28;20058;-62
2023/08/28 19:57:43;;;;;;;2.42;1.40;;;;;;;17.81;83.99;101335.44;20553555;28;20055;-62
2023/08/28 20:08:05;;;;;;;3.78;1.42;;;;;;;17.59;84.23;101350.53;20549373;28;20065;-62
2023/08/28 20:18:27;;;;;;;3.17;1.50;;;;;;;17.42;85.43;101364.44;20543044;28;20052;-62
2023/08/28 20:28:49;;;;;;;6.03;1.30;;;;;;;17.31;86.13;101353.66;20557682;28;20043;-62
2023/08/28 20:39:11;;;;;;;4.30;1.75;;;;;;;17.25;86.62;101348.72;20546876;28;20050;-62
2023/08/28 20:49:35;;;;;;;2.35;1.77;;;;;;;17.18;86.54;101354.34;20553021;28;20043;-62
2023/08/28 20:59:57;;;;;;;4.25;2.05;;;;;;;17.12;87.80;101328.47;20566277;28;20504;-62
2023/08/28 21:10:19;;;;;;;3.63;1.92;;;;;;;17.02;87.71;101334.16;20552594;28;20070;-62
2023/08/28 21:20:41;;;;;;;2.53;1.73;;;;;;;16.85;88.07;101354.16;20548155;28;20132;-62
2023/08/28 21:31:04;;;;;;;4.13;1.75;;;;;;;16.81;88.16;101361.31;20527273;28;20163;-62
2023/08/28 21:41:26;;;;;;;4.03;1.73;;;;;;;16.76;88.93;101367.69;20556846;28;20058;-62
2023/08/28 21:51:48;;;;;;;2.15;1.65;;;;;;;16.75;88.43;101366.84;20563270;28;20066;-62
2023/08/28 22:02:09;;;;;;;3.28;1.80;;;;;;;16.65;89.24;101354.25;20562115;28;20047;-62
2023/08/28 22:12:31;;;;;;;3.35;2.30;;;;;;;16.47;89.62;101355.97;20566125;28;20456;-62
2023/08/28 22:22:53;;;;;;;6.47;2.22;;;;;;;16.41;90.12;101344.94;20568771;28;20074;-63
2023/08/28 22:33:15;;;;;;;5.97;2.10;;;;;;;16.35;89.36;101334.75;20580003;28;20045;-62
2023/08/28 22:43:36;;;;;;;3.25;2.20;;;;;;;16.20;89.88;101325.84;20566997;28;20054;-63
2023/08/28 22:53:58;;;;;;;4.30;2.13;;;;;;;16.06;91.16;101323.00;20562960;28;20047;-62
2023/08/28 23:04:19;;;;;;;2.67;2.38;;;;;;;15.91;92.02;101315.84;20555959;28;20042;-63
2023/08/28 23:14:42;;;;;;;4.00;2.70;;;;;;;15.86;90.82;101296.91;20563534;28;20035;-63
2023/08/28 23:25:04;;;;;;;4.30;3.20;;;;;;;15.71;91.67;101321.09;20561008;28;20042;-63
2023/08/28 23:35:27;;;;;;;5.35;2.63;;;;;;;15.61;92.13;101325.00;20565578;28;20043;-62
2023/08/28 23:45:48;;;;;;;3.83;2.85;;;;;;;15.56;92.34;101316.53;20556389;28;20044;-62
2023/08/28 23:56:10;;;;;;;4.82;2.63;;;;;;;15.40;91.74;101312.84;20541968;28;20042;-62
